createdAt,value
2024-01-16T00:00:21.919Z,1.20
2024-01-16T00:02:54.063Z,1.35
2024-01-16T00:05:26.262Z,1.70
2024-01-16T00:08:01.464Z,1.17
2024-01-16T00:10:33.647Z,1.10
2024-01-16T00:13:05.786Z,1.35
2024-01-16T00:15:37.931Z,1.40
2024-01-16T00:18:10.811Z,1.13
2024-01-16T00:20:43.328Z,1.30
2024-01-16T00:23:15.543Z,1.25
2024-01-16T00:25:47.690Z,1.40
2024-01-16T00:28:21.095Z,1.48
2024-01-16T00:30:53.161Z,1.33
2024-01-16T00:33:25.550Z,1.17
2024-01-16T00:35:57.807Z,1.45
2024-01-16T00:38:30.013Z,1.30
2024-01-16T00:41:02.243Z,1.58
2024-01-16T00:43:36.373Z,1.15
2024-01-16T00:46:08.667Z,1.23
2024-01-16T00:48:41.100Z,1.38
2024-01-16T00:51:13.343Z,1.27
2024-01-16T00:53:45.852Z,1.27
2024-01-16T00:56:18.211Z,1.50
2024-01-16T00:58:50.368Z,1.00
2024-01-16T01:01:47.120Z,1.20
2024-01-16T01:04:19.195Z,1.20
2024-01-16T01:06:51.402Z,1.27
2024-01-16T01:09:23.506Z,1.30
2024-01-16T01:11:55.639Z,1.50
2024-01-16T01:14:30.681Z,1.40
2024-01-16T01:17:02.945Z,1.15
2024-01-16T01:19:35.738Z,1.33
2024-01-16T01:22:07.908Z,1.30
2024-01-16T01:24:40.017Z,1.10
2024-01-16T01:27:12.157Z,1.40
2024-01-16T01:29:44.398Z,1.42
2024-01-16T01:32:16.755Z,1.20
2024-01-16T01:34:49.148Z,1.40
2024-01-16T01:37:21.337Z,1.25
2024-01-16T01:39:53.412Z,1.10
2024-01-16T01:42:25.516Z,1.20
2024-01-16T01:44:57.558Z,1.25
2024-01-16T01:47:31.237Z,1.35
2024-01-16T01:50:05.097Z,1.40
2024-01-16T01:52:40.943Z,1.30
2024-01-16T01:55:14.985Z,1.63
2024-01-16T01:57:47.262Z,1.40
2024-01-16T02:00:20.156Z,1.20
2024-01-16T02:02:52.383Z,1.40
2024-01-16T02:05:24.706Z,1.33
2024-01-16T02:07:57.064Z,1.35
2024-01-16T02:10:29.214Z,1.25
2024-01-16T02:13:01.886Z,1.00
2024-01-16T02:15:34.006Z,1.25
2024-01-16T02:18:06.469Z,1.20
2024-01-16T02:20:38.687Z,1.45
2024-01-16T02:23:13.823Z,1.20
2024-01-16T02:25:46.384Z,1.60
2024-01-16T02:28:18.737Z,1.23
2024-01-16T02:30:50.929Z,1.38
2024-01-16T02:33:23.172Z,0.98
2024-01-16T02:35:55.288Z,1.15
2024-01-16T02:38:27.395Z,1.30
2024-01-16T02:40:59.522Z,1.27
2024-01-16T02:43:31.684Z,0.95
2024-01-16T02:46:04.106Z,1.27
2024-01-16T02:48:37.434Z,1.20
2024-01-16T02:51:10.036Z,1.30
2024-01-16T02:53:42.225Z,1.20
2024-01-16T02:56:14.433Z,1.27
2024-01-16T02:58:46.650Z,1.27
2024-01-16T03:01:19.260Z,1.20
2024-01-16T03:03:51.395Z,1.38
2024-01-16T03:06:27.187Z,1.30
2024-01-16T03:08:59.466Z,1.08
2024-01-16T03:11:33.897Z,1.08
2024-01-16T03:14:07.117Z,1.10
2024-01-16T03:16:39.220Z,1.20
2024-01-16T03:19:13.407Z,1.02
2024-01-16T03:21:45.872Z,0.93
2024-01-16T03:24:18.008Z,1.50
2024-01-16T03:26:50.274Z,1.08
2024-01-16T03:29:22.614Z,1.10
2024-01-16T03:31:54.942Z,1.15
2024-01-16T03:34:27.258Z,1.17
2024-01-16T03:36:59.540Z,1.08
2024-01-16T03:39:31.864Z,1.38
2024-01-16T03:42:04.289Z,1.27
2024-01-16T03:44:41.571Z,1.20
2024-01-16T03:47:13.930Z,0.85
2024-01-16T03:49:46.377Z,1.23
2024-01-16T03:52:18.460Z,1.15
2024-01-16T03:54:50.617Z,1.00
2024-01-16T03:57:23.202Z,1.23
2024-01-16T03:59:55.377Z,1.23
2024-01-16T04:02:27.465Z,0.90
2024-01-16T04:04:59.652Z,1.02
2024-01-16T04:07:31.731Z,1.38
2024-01-16T04:10:06.509Z,1.15
2024-01-16T04:12:38.607Z,1.10
2024-01-16T04:15:10.966Z,1.23
2024-01-16T04:17:43.119Z,1.30
2024-01-16T04:20:15.370Z,0.90
2024-01-16T04:22:47.653Z,1.30
2024-01-16T04:25:19.804Z,1.05
2024-01-16T04:27:52.016Z,1.08
2024-01-16T04:30:24.294Z,1.02
2024-01-16T04:32:56.540Z,1.10
2024-01-16T04:35:28.796Z,1.15
2024-01-16T04:38:00.873Z,1.20
2024-01-16T04:40:32.999Z,1.00
2024-01-16T04:43:05.270Z,1.17
2024-01-16T04:45:37.620Z,1.08
2024-01-16T04:48:12.625Z,1.40
2024-01-16T04:50:45.840Z,0.80
2024-01-16T04:53:18.029Z,1.05
2024-01-16T04:55:50.199Z,0.90
2024-01-16T04:58:22.279Z,1.23
2024-01-16T05:00:54.413Z,0.90
2024-01-16T05:03:26.701Z,0.90
2024-01-16T05:05:59.028Z,0.80
2024-01-16T05:08:32.073Z,1.00
2024-01-16T05:11:04.295Z,0.82
2024-01-16T05:13:36.447Z,1.10
2024-01-16T05:16:09.374Z,1.10
2024-01-16T05:18:44.689Z,1.35
2024-01-16T05:21:16.826Z,0.95
2024-01-16T05:23:49.013Z,1.08
2024-01-16T05:26:21.214Z,1.17
2024-01-16T05:28:53.346Z,0.80
2024-01-16T05:31:25.539Z,1.27
2024-01-16T05:33:57.790Z,1.20
2024-01-16T05:36:29.921Z,1.08
2024-01-16T05:39:02.282Z,1.00
2024-01-16T05:41:36.120Z,0.52
2024-01-16T05:44:08.334Z,1.00
2024-01-16T05:46:40.485Z,0.90
2024-01-16T05:49:12.655Z,0.88
2024-01-16T05:51:44.780Z,0.98
2024-01-16T05:54:16.854Z,0.80
2024-01-16T05:56:49.174Z,0.80
2024-01-16T05:59:22.660Z,0.80
2024-01-16T06:01:54.732Z,0.85
2024-01-16T06:04:26.926Z,0.70
2024-01-16T06:06:59.078Z,0.90
2024-01-16T06:09:31.226Z,0.88
2024-01-16T06:12:05.059Z,0.75
2024-01-16T06:14:37.192Z,1.20
2024-01-16T06:17:09.975Z,0.70
2024-01-16T06:19:42.085Z,1.10
2024-01-16T06:22:14.276Z,0.90
2024-01-16T06:24:46.344Z,1.08
2024-01-16T06:27:20.607Z,0.93
2024-01-16T06:29:52.997Z,0.90
2024-01-16T06:32:25.317Z,0.95
2024-01-16T06:34:57.615Z,0.93
2024-01-16T06:37:29.708Z,1.17
2024-01-16T06:40:01.840Z,1.00
2024-01-16T06:42:34.694Z,1.10
2024-01-16T06:45:07.950Z,1.02
2024-01-16T06:47:40.800Z,0.77
2024-01-16T06:50:12.958Z,0.90
2024-01-16T06:52:45.260Z,0.85
2024-01-16T06:55:17.314Z,0.82
2024-01-16T06:57:49.415Z,0.90
2024-01-16T07:00:23.979Z,0.80
2024-01-16T07:02:56.367Z,1.00
2024-01-16T07:05:28.670Z,0.70
2024-01-16T07:08:01.040Z,1.02
2024-01-16T07:10:33.234Z,0.80
2024-01-16T07:13:05.594Z,0.95
2024-01-16T07:15:37.720Z,0.90
2024-01-16T07:18:10.429Z,0.90
2024-01-16T07:20:42.640Z,0.90
2024-01-16T07:23:14.886Z,0.80
2024-01-16T07:25:47.060Z,0.93
2024-01-16T07:28:20.391Z,0.95
2024-01-16T07:30:55.288Z,0.98
2024-01-16T07:33:28.333Z,0.80
2024-01-16T07:36:00.735Z,1.00
2024-01-16T07:38:33.398Z,1.20
2024-01-16T07:41:06.647Z,0.80
2024-01-16T07:43:38.876Z,0.98
2024-01-16T07:46:11.046Z,1.00
2024-01-16T07:48:43.345Z,0.75
2024-01-16T07:51:15.647Z,0.85
2024-01-16T07:53:47.905Z,1.00
2024-01-16T07:56:20.137Z,0.80
2024-01-16T07:58:52.282Z,0.93
2024-01-16T08:01:24.437Z,0.90
2024-01-16T08:03:57.581Z,0.88
2024-01-16T08:06:29.923Z,0.90
2024-01-16T08:09:02.256Z,0.75
2024-01-16T08:11:37.087Z,0.98
2024-01-16T08:14:09.845Z,0.80
2024-01-16T08:16:42.033Z,0.77
2024-01-16T08:19:16.114Z,0.85
2024-01-16T08:21:48.810Z,0.90
2024-01-16T08:24:20.997Z,0.80
2024-01-16T08:26:53.179Z,0.93
2024-01-16T08:29:26.030Z,1.00
2024-01-16T08:31:58.260Z,0.73
2024-01-16T08:34:30.500Z,1.00
2024-01-16T08:37:02.740Z,0.77
2024-01-16T08:39:35.429Z,0.70
2024-01-16T08:42:07.692Z,0.98
2024-01-16T08:44:40.765Z,0.93
2024-01-16T08:47:13.002Z,0.90
2024-01-16T08:49:45.217Z,0.85
2024-01-16T08:52:17.993Z,0.90
2024-01-16T08:54:50.104Z,1.13
2024-01-16T08:57:24.755Z,1.08
2024-01-16T08:59:57.805Z,0.82
2024-01-16T09:02:30.673Z,0.80
2024-01-16T09:05:03.096Z,1.10
2024-01-16T09:07:35.357Z,1.00
2024-01-16T09:10:08.332Z,1.00
2024-01-16T09:12:40.433Z,0.77
2024-01-16T09:15:12.576Z,1.00
2024-01-16T09:17:44.842Z,0.90
2024-01-16T09:20:17.312Z,1.00
2024-01-16T09:22:49.460Z,0.70
2024-01-16T09:25:22.397Z,1.00
2024-01-16T09:27:54.585Z,0.73
2024-01-16T09:30:26.841Z,0.63
2024-01-16T09:32:59.072Z,0.70
2024-01-16T09:35:31.508Z,1.00
2024-01-16T09:38:06.300Z,0.88
2024-01-16T09:40:38.406Z,0.90
2024-01-16T09:43:11.964Z,1.00
2024-01-16T09:45:44.121Z,0.80
2024-01-16T09:48:16.941Z,0.90
2024-01-16T09:50:49.364Z,0.90
2024-01-16T09:53:21.715Z,0.90
2024-01-16T09:55:58.282Z,0.90
2024-01-16T09:58:38.458Z,0.95
2024-01-16T10:01:11.606Z,1.00
2024-01-16T10:03:47.363Z,0.90
2024-01-16T10:06:22.231Z,0.90
2024-01-16T10:08:54.701Z,0.75
2024-01-16T10:11:27.069Z,0.80
2024-01-16T10:14:00.290Z,0.80
2024-01-16T10:17:04.116Z,0.80
2024-01-16T10:19:43.679Z,1.00
2024-01-16T10:22:26.709Z,1.10
2024-01-16T10:25:11.544Z,0.90
2024-01-16T10:27:44.516Z,0.73
2024-01-16T10:30:22.800Z,1.00
2024-01-16T10:32:55.032Z,0.90
2024-01-16T10:35:27.318Z,0.70
2024-01-16T10:37:59.498Z,0.65
2024-01-16T10:40:33.017Z,0.80
2024-01-16T10:43:06.250Z,0.80
2024-01-16T10:45:38.328Z,1.00
2024-01-16T10:48:10.802Z,0.80
2024-01-16T10:50:43.146Z,0.98
2024-01-16T10:53:17.771Z,0.70
2024-01-16T10:55:53.899Z,0.90
2024-01-16T10:58:31.637Z,0.60
2024-01-16T11:01:07.119Z,1.02
2024-01-16T11:03:44.884Z,0.90
2024-01-16T11:06:19.481Z,0.95
2024-01-16T11:08:53.852Z,0.77
2024-01-16T11:11:26.933Z,0.80
2024-01-16T11:13:59.977Z,0.82
2024-01-16T11:16:33.862Z,0.90
2024-01-16T11:19:25.000Z,0.73
2024-01-16T11:22:02.292Z,0.80
2024-01-16T11:24:38.002Z,1.05
2024-01-16T11:27:10.246Z,0.95
2024-01-16T11:29:42.450Z,0.80
2024-01-16T11:32:43.198Z,0.60
2024-01-16T11:35:41.125Z,0.90
2024-01-16T11:38:21.935Z,0.82
2024-01-16T11:40:55.447Z,0.80
2024-01-16T11:43:33.774Z,0.80
2024-01-16T11:46:10.249Z,0.95
2024-01-16T11:48:44.289Z,1.02
2024-01-16T11:51:26.947Z,0.90
2024-01-16T11:53:59.285Z,1.00
2024-01-16T11:57:01.252Z,0.70
2024-01-16T12:00:01.574Z,1.30
2024-01-16T12:02:50.239Z,1.08
2024-01-16T12:05:23.361Z,1.33
2024-01-16T12:07:56.283Z,1.77
2024-01-16T12:10:28.486Z,1.63
2024-01-16T12:13:04.453Z,1.60
2024-01-16T12:15:37.831Z,1.90
2024-01-16T12:18:19.687Z,1.30
2024-01-16T12:21:00.117Z,1.88
2024-01-16T12:23:32.359Z,2.00
2024-01-16T12:26:05.070Z,1.55
2024-01-16T12:28:37.534Z,1.42
2024-01-16T12:31:09.748Z,2.05
2024-01-16T12:33:47.280Z,2.00
2024-01-16T12:36:24.765Z,1.98
2024-01-16T12:38:58.116Z,1.75
2024-01-16T12:41:53.249Z,2.30
2024-01-16T12:44:31.906Z,2.22
2024-01-16T12:47:04.360Z,2.28
2024-01-16T12:49:46.282Z,2.25
2024-01-16T12:52:23.363Z,2.30
2024-01-16T12:55:03.115Z,1.65
2024-01-16T12:57:35.661Z,2.03
2024-01-16T13:00:25.580Z,3.38
2024-01-16T13:03:00.255Z,5.32
2024-01-16T13:05:34.164Z,7.00
2024-01-16T13:08:07.441Z,7.95
2024-01-16T13:10:39.663Z,5.60
2024-01-16T13:13:18.997Z,6.05
2024-01-16T13:15:51.910Z,6.87
2024-01-16T13:18:27.154Z,7.03
2024-01-16T13:21:01.195Z,6.78
2024-01-16T13:23:33.477Z,6.15
2024-01-16T13:26:05.882Z,7.82
2024-01-16T13:28:37.993Z,8.07
2024-01-16T13:31:10.250Z,6.80
2024-01-16T13:33:42.607Z,8.02
2024-01-16T13:36:16.711Z,8.45
2024-01-16T13:38:50.030Z,9.02
2024-01-16T13:41:22.546Z,8.63
2024-01-16T13:43:54.793Z,8.90
2024-01-16T13:46:37.202Z,10.07
2024-01-16T13:49:19.403Z,10.77
2024-01-16T13:51:51.632Z,8.65
2024-01-16T13:54:23.823Z,8.98
2024-01-16T13:57:06.025Z,9.18
2024-01-16T13:59:40.326Z,9.55
2024-01-16T14:02:12.846Z,10.90
2024-01-16T14:04:45.145Z,10.82
2024-01-16T14:07:17.600Z,10.70
2024-01-16T14:09:49.815Z,10.57
2024-01-16T14:12:22.263Z,10.13
2024-01-16T14:14:54.478Z,9.80
2024-01-16T14:17:27.592Z,10.60
2024-01-16T14:20:00.584Z,9.18
2024-01-16T14:22:32.882Z,9.82
2024-01-16T14:25:11.975Z,9.18
2024-01-16T14:27:45.480Z,9.18
2024-01-16T14:30:18.192Z,8.98
2024-01-16T14:32:51.065Z,8.70
2024-01-16T14:35:25.364Z,8.05
2024-01-16T14:37:57.790Z,7.38
2024-01-16T14:40:29.977Z,9.13
2024-01-16T14:43:05.509Z,9.90
2024-01-16T14:45:37.688Z,7.78
2024-01-16T14:48:11.733Z,7.97
2024-01-16T14:50:44.679Z,9.10
2024-01-16T14:53:16.947Z,9.45
2024-01-16T14:55:49.894Z,9.73
2024-01-16T14:58:24.461Z,9.73
2024-01-16T15:00:57.667Z,9.75
2024-01-16T15:03:32.886Z,9.52
2024-01-16T15:06:06.450Z,11.02
2024-01-16T15:08:38.653Z,11.60
2024-01-16T15:11:11.907Z,11.95
2024-01-16T15:13:44.103Z,12.52
2024-01-16T15:16:20.600Z,12.70
2024-01-16T15:18:53.132Z,13.38
2024-01-16T15:21:26.365Z,13.40
2024-01-16T15:23:58.692Z,13.82
2024-01-16T15:26:32.627Z,15.15
2024-01-16T15:29:06.379Z,14.65
2024-01-16T15:31:38.523Z,15.68
2024-01-16T15:34:13.039Z,16.77
2024-01-16T15:36:47.934Z,16.23
2024-01-16T15:39:20.321Z,16.15
2024-01-16T15:41:52.739Z,16.45
2024-01-16T15:44:25.519Z,15.90
2024-01-16T15:47:03.127Z,18.13
2024-01-16T15:49:36.870Z,16.95
2024-01-16T15:52:09.530Z,17.20
2024-01-16T15:54:42.026Z,18.73
2024-01-16T15:57:14.309Z,17.35
2024-01-16T15:59:46.506Z,18.15
2024-01-16T16:02:18.930Z,17.75
2024-01-16T16:04:51.352Z,18.83
2024-01-16T16:07:26.266Z,19.13
2024-01-16T16:09:59.285Z,19.25
2024-01-16T16:12:31.419Z,18.67
2024-01-16T16:15:05.648Z,19.33
2024-01-16T16:17:38.022Z,19.73
2024-01-16T16:20:11.410Z,20.80
2024-01-16T16:22:45.496Z,18.73
2024-01-16T16:25:19.089Z,19.20
2024-01-16T16:27:51.272Z,18.95
2024-01-16T16:30:23.494Z,17.58
2024-01-16T16:32:55.847Z,18.15
2024-01-16T16:35:28.053Z,17.27
2024-01-16T16:38:00.284Z,18.95
2024-01-16T16:40:33.760Z,18.65
2024-01-16T16:43:05.914Z,17.25
2024-01-16T16:45:38.950Z,17.00
2024-01-16T16:48:11.510Z,17.17
2024-01-16T16:50:44.412Z,17.10
2024-01-16T16:53:16.537Z,15.48
2024-01-16T16:55:48.682Z,15.77
2024-01-16T16:58:21.832Z,15.60
2024-01-16T17:00:54.138Z,15.15
2024-01-16T17:03:26.282Z,13.90
2024-01-16T17:05:59.862Z,13.75
2024-01-16T17:08:36.937Z,13.43
2024-01-16T17:11:10.381Z,12.95
2024-01-16T17:13:43.934Z,12.95
2024-01-16T17:16:23.962Z,12.40
2024-01-16T17:18:56.290Z,12.23
2024-01-16T17:21:28.524Z,12.00
2024-01-16T17:24:01.208Z,11.75
2024-01-16T17:26:33.729Z,12.32
2024-01-16T17:29:06.198Z,12.57
2024-01-16T17:31:38.773Z,11.73
2024-01-16T17:34:13.785Z,11.30
2024-01-16T17:36:47.673Z,10.65
2024-01-16T17:39:22.242Z,10.85
2024-01-16T17:41:54.569Z,11.93
2024-01-16T17:44:26.737Z,11.00
2024-01-16T17:46:59.059Z,10.63
2024-01-16T17:49:34.752Z,8.68
2024-01-16T17:52:10.865Z,10.05
2024-01-16T17:54:43.058Z,9.38
2024-01-16T17:57:15.212Z,9.68
2024-01-16T17:59:47.366Z,11.10
2024-01-16T18:02:19.527Z,10.52
2024-01-16T18:04:52.552Z,11.55
2024-01-16T18:07:24.820Z,10.13
2024-01-16T18:09:57.006Z,10.15
2024-01-16T18:12:29.819Z,10.55
2024-01-16T18:15:02.360Z,9.55
2024-01-16T18:17:34.772Z,10.05
2024-01-16T18:20:11.542Z,10.65
2024-01-16T18:22:52.602Z,10.73
2024-01-16T18:25:27.837Z,9.15
2024-01-16T18:28:00.830Z,10.40
2024-01-16T18:30:34.528Z,9.68
2024-01-16T18:33:06.777Z,11.10
2024-01-16T18:35:40.204Z,9.95
2024-01-16T18:38:12.951Z,10.95
2024-01-16T18:40:45.184Z,10.95
2024-01-16T18:43:17.394Z,11.07
2024-01-16T18:45:49.883Z,11.00
2024-01-16T18:48:22.228Z,10.77
2024-01-16T18:50:56.120Z,10.07
2024-01-16T18:53:29.024Z,13.02
2024-01-16T18:56:01.272Z,12.00
2024-01-16T18:58:35.084Z,14.70
2024-01-16T19:01:08.641Z,14.82
2024-01-16T19:03:41.452Z,11.68
2024-01-16T19:06:16.577Z,12.60
2024-01-16T19:08:48.726Z,9.55
2024-01-16T19:11:21.022Z,12.65
2024-01-16T19:13:53.306Z,12.02
2024-01-16T19:16:25.540Z,14.13
2024-01-16T19:18:58.854Z,12.23
2024-01-16T19:21:31.123Z,13.60
2024-01-16T19:24:03.355Z,15.27
2024-01-16T19:26:36.129Z,12.02
2024-01-16T19:29:11.035Z,13.18
2024-01-16T19:31:46.828Z,11.02
2024-01-16T19:34:19.361Z,12.48
2024-01-16T19:36:51.718Z,14.00
2024-01-16T19:39:26.336Z,12.10
2024-01-16T19:41:59.958Z,12.07
2024-01-16T19:44:32.146Z,12.85
2024-01-16T19:47:05.701Z,13.48
2024-01-16T19:49:38.463Z,13.60
2024-01-16T19:52:11.011Z,13.35
2024-01-16T19:54:45.437Z,13.02
2024-01-16T19:57:17.693Z,13.50
2024-01-16T19:59:49.887Z,14.32
2024-01-16T20:02:23.209Z,13.23
2024-01-16T20:04:55.727Z,14.05
2024-01-16T20:07:28.159Z,15.25
2024-01-16T20:10:00.520Z,13.57
2024-01-16T20:12:39.739Z,14.13
2024-01-16T20:15:19.796Z,13.93
2024-01-16T20:17:54.884Z,14.70
2024-01-16T20:20:28.285Z,14.57
2024-01-16T20:23:00.510Z,14.25
2024-01-16T20:25:32.693Z,14.60
2024-01-16T20:28:06.784Z,15.70
2024-01-16T20:30:41.184Z,15.57
2024-01-16T20:33:13.468Z,16.05
2024-01-16T20:35:45.957Z,15.45
2024-01-16T20:38:18.270Z,15.45
2024-01-16T20:40:51.331Z,14.95
2024-01-16T20:43:23.528Z,15.45
2024-01-16T20:45:57.144Z,15.82
2024-01-16T20:48:34.122Z,15.90
2024-01-16T20:51:07.113Z,15.73
2024-01-16T20:53:39.383Z,14.00
2024-01-16T20:56:11.810Z,16.15
2024-01-16T20:58:43.983Z,15.35
2024-01-16T21:01:16.474Z,15.80
2024-01-16T21:03:49.557Z,16.98
2024-01-16T21:06:21.832Z,15.93
2024-01-16T21:08:54.900Z,15.77
2024-01-16T21:11:27.335Z,16.50
2024-01-16T21:13:59.777Z,15.18
2024-01-16T21:16:33.119Z,15.93
2024-01-16T21:19:08.892Z,15.63
2024-01-16T21:21:43.891Z,16.02
2024-01-16T21:24:16.504Z,15.63
2024-01-16T21:26:49.292Z,15.70
2024-01-16T21:29:22.798Z,16.15
2024-01-16T21:31:55.380Z,16.55
2024-01-16T21:34:28.286Z,15.63
2024-01-16T21:37:01.278Z,17.15
2024-01-16T21:39:36.616Z,17.05
2024-01-16T21:42:10.114Z,18.08
2024-01-16T21:44:42.292Z,17.23
2024-01-16T21:47:14.354Z,16.65
2024-01-16T21:49:48.538Z,17.20
2024-01-16T21:52:23.253Z,18.90
2024-01-16T21:54:55.419Z,16.27
2024-01-16T21:57:29.673Z,18.38
2024-01-16T22:00:04.583Z,15.30
2024-01-16T22:02:36.857Z,16.90
2024-01-16T22:05:12.716Z,16.98
2024-01-16T22:07:44.855Z,16.67
2024-01-16T22:10:17.408Z,16.73
2024-01-16T22:12:49.590Z,17.98
2024-01-16T22:15:21.808Z,17.20
2024-01-16T22:17:56.476Z,16.70
2024-01-16T22:20:33.561Z,16.70
2024-01-16T22:23:06.158Z,17.25
2024-01-16T22:25:38.305Z,16.88
2024-01-16T22:28:12.474Z,16.50
2024-01-16T22:30:44.789Z,17.33
2024-01-16T22:33:17.068Z,17.10
2024-01-16T22:35:50.331Z,17.90
2024-01-16T22:38:22.671Z,17.42
2024-01-16T22:40:54.834Z,17.52
2024-01-16T22:43:26.958Z,17.98
2024-01-16T22:46:00.450Z,17.23
2024-01-16T22:48:32.782Z,18.30
2024-01-16T22:51:05.330Z,18.13
2024-01-16T22:53:37.642Z,16.83
2024-01-16T22:56:10.919Z,15.95
2024-01-16T22:58:43.294Z,17.02
2024-01-16T23:01:16.036Z,17.63
2024-01-16T23:03:54.993Z,17.63
2024-01-16T23:06:30.441Z,18.30
2024-01-16T23:09:02.964Z,18.13
2024-01-16T23:11:35.167Z,16.67
2024-01-16T23:14:08.323Z,16.42
2024-01-16T23:16:40.565Z,18.98
2024-01-16T23:19:12.865Z,17.00
2024-01-16T23:21:48.400Z,16.88
2024-01-16T23:24:20.584Z,16.35
2024-01-16T23:26:52.814Z,16.75
2024-01-16T23:29:24.984Z,16.65
2024-01-16T23:31:57.264Z,16.85
2024-01-16T23:34:29.703Z,18.45
2024-01-16T23:37:01.893Z,16.13
2024-01-16T23:39:35.794Z,17.05
2024-01-16T23:42:27.888Z,16.58
2024-01-16T23:45:01.960Z,16.55
2024-01-16T23:47:36.642Z,16.63
2024-01-16T23:50:09.111Z,16.35
2024-01-16T23:52:41.857Z,15.20
2024-01-16T23:55:14.116Z,16.08
2024-01-16T23:57:46.366Z,16.25
